sensor_id;sensor_type;location;lat;lon;timestamp;P1;durP1;ratioP1;P2;durP2;ratioP2
8319;SDS011;4197;42.130;24.746;2023-12-04T00:02:06;10.30;;;8.23;;
8319;SDS011;4197;42.130;24.746;2023-12-04T00:04:35;9.40;;;8.30;;
8319;SDS011;4197;42.130;24.746;2023-12-04T00:07:04;9.73;;;7.90;;
8319;SDS011;4197;42.130;24.746;2023-12-04T00:09:33;10.27;;;8.20;;
8319;SDS011;4197;42.130;24.746;2023-12-04T00:12:02;12.60;;;8.37;;
8319;SDS011;4197;42.130;24.746;2023-12-04T00:14:31;11.77;;;7.90;;
8319;SDS011;4197;42.130;24.746;2023-12-04T00:16:59;8.50;;;7.33;;
8319;SDS011;4197;42.130;24.746;2023-12-04T00:19:27;9.40;;;7.77;;
8319;SDS011;4197;42.130;24.746;2023-12-04T00:21:56;9.30;;;7.37;;
8319;SDS011;4197;42.130;24.746;2023-12-04T00:24:27;8.83;;;7.30;;
8319;SDS011;4197;42.130;24.746;2023-12-04T00:26:55;8.80;;;7.53;;
8319;SDS011;4197;42.130;24.746;2023-12-04T00:29:23;11.80;;;7.77;;
8319;SDS011;4197;42.130;24.746;2023-12-04T00:31:52;11.03;;;8.27;;
8319;SDS011;4197;42.130;24.746;2023-12-04T00:34:21;10.27;;;6.90;;
8319;SDS011;4197;42.130;24.746;2023-12-04T00:36:49;9.70;;;7.17;;
8319;SDS011;4197;42.130;24.746;2023-12-04T00:39:17;9.53;;;7.97;;
8319;SDS011;4197;42.130;24.746;2023-12-04T00:41:47;9.17;;;8.00;;
8319;SDS011;4197;42.130;24.746;2023-12-04T00:44:15;10.47;;;7.07;;
8319;SDS011;4197;42.130;24.746;2023-12-04T00:46:44;11.73;;;8.50;;
8319;SDS011;4197;42.130;24.746;2023-12-04T00:49:12;12.53;;;8.33;;
8319;SDS011;4197;42.130;24.746;2023-12-04T00:51:41;10.87;;;7.70;;
8319;SDS011;4197;42.130;24.746;2023-12-04T00:54:09;9.80;;;7.20;;
8319;SDS011;4197;42.130;24.746;2023-12-04T00:56:38;9.20;;;7.37;;
8319;SDS011;4197;42.130;24.746;2023-12-04T00:59:08;9.80;;;7.57;;
8319;SDS011;4197;42.130;24.746;2023-12-04T01:01:37;13.37;;;7.27;;
8319;SDS011;4197;42.130;24.746;2023-12-04T01:04:06;9.43;;;6.30;;
8319;SDS011;4197;42.130;24.746;2023-12-04T01:06:34;10.30;;;6.70;;
8319;SDS011;4197;42.130;24.746;2023-12-04T01:09:04;7.50;;;6.10;;
8319;SDS011;4197;42.130;24.746;2023-12-04T01:11:32;9.03;;;7.20;;
8319;SDS011;4197;42.130;24.746;2023-12-04T01:14:00;8.47;;;6.60;;
8319;SDS011;4197;42.130;24.746;2023-12-04T01:16:30;8.97;;;7.00;;
8319;SDS011;4197;42.130;24.746;2023-12-04T01:18:59;8.97;;;6.30;;
8319;SDS011;4197;42.130;24.746;2023-12-04T01:21:27;10.20;;;6.90;;
8319;SDS011;4197;42.130;24.746;2023-12-04T01:23:57;8.53;;;6.63;;
8319;SDS011;4197;42.130;24.746;2023-12-04T01:26:25;8.53;;;6.67;;
8319;SDS011;4197;42.130;24.746;2023-12-04T01:28:54;8.73;;;6.83;;
8319;SDS011;4197;42.130;24.746;2023-12-04T01:31:22;9.40;;;6.83;;
8319;SDS011;4197;42.130;24.746;2023-12-04T01:33:52;8.93;;;6.50;;
8319;SDS011;4197;42.130;24.746;2023-12-04T01:36:21;7.67;;;5.60;;
8319;SDS011;4197;42.130;24.746;2023-12-04T01:38:50;14.83;;;8.37;;
8319;SDS011;4197;42.130;24.746;2023-12-04T01:41:19;9.50;;;7.40;;
8319;SDS011;4197;42.130;24.746;2023-12-04T01:43:47;8.50;;;5.70;;
8319;SDS011;4197;42.130;24.746;2023-12-04T01:46:16;8.20;;;6.80;;
8319;SDS011;4197;42.130;24.746;2023-12-04T01:48:45;7.60;;;6.23;;
8319;SDS011;4197;42.130;24.746;2023-12-04T01:51:16;7.27;;;5.97;;
8319;SDS011;4197;42.130;24.746;2023-12-04T01:53:45;7.13;;;5.50;;
8319;SDS011;4197;42.130;24.746;2023-12-04T01:56:15;7.17;;;5.63;;
8319;SDS011;4197;42.130;24.746;2023-12-04T01:58:45;7.13;;;5.40;;
8319;SDS011;4197;42.130;24.746;2023-12-04T02:01:13;6.83;;;5.77;;
8319;SDS011;4197;42.130;24.746;2023-12-04T02:03:43;6.27;;;5.33;;
8319;SDS011;4197;42.130;24.746;2023-12-04T02:06:11;8.03;;;5.30;;
8319;SDS011;4197;42.130;24.746;2023-12-04T02:08:42;7.30;;;4.90;;
8319;SDS011;4197;42.130;24.746;2023-12-04T02:11:12;6.40;;;5.37;;
8319;SDS011;4197;42.130;24.746;2023-12-04T02:13:40;8.00;;;5.33;;
8319;SDS011;4197;42.130;24.746;2023-12-04T02:16:09;7.40;;;5.43;;
8319;SDS011;4197;42.130;24.746;2023-12-04T02:18:40;6.37;;;5.20;;
8319;SDS011;4197;42.130;24.746;2023-12-04T02:21:10;6.37;;;4.90;;
8319;SDS011;4197;42.130;24.746;2023-12-04T02:23:38;6.40;;;4.90;;
8319;SDS011;4197;42.130;24.746;2023-12-04T02:26:10;7.23;;;4.80;;
8319;SDS011;4197;42.130;24.746;2023-12-04T02:28:44;11.00;;;4.90;;
8319;SDS011;4197;42.130;24.746;2023-12-04T02:31:18;6.07;;;4.30;;
8319;SDS011;4197;42.130;24.746;2023-12-04T02:33:48;5.40;;;4.70;;
8319;SDS011;4197;42.130;24.746;2023-12-04T02:36:20;6.70;;;4.63;;
8319;SDS011;4197;42.130;24.746;2023-12-04T02:38:51;5.57;;;4.50;;
8319;SDS011;4197;42.130;24.746;2023-12-04T02:41:22;5.67;;;4.80;;
8319;SDS011;4197;42.130;24.746;2023-12-04T02:43:50;5.67;;;4.60;;
8319;SDS011;4197;42.130;24.746;2023-12-04T02:46:19;4.90;;;4.27;;
8319;SDS011;4197;42.130;24.746;2023-12-04T02:48:47;7.10;;;5.03;;
8319;SDS011;4197;42.130;24.746;2023-12-04T02:51:16;5.63;;;4.37;;
8319;SDS011;4197;42.130;24.746;2023-12-04T02:53:44;7.10;;;5.67;;
8319;SDS011;4197;42.130;24.746;2023-12-04T02:56:12;5.67;;;4.63;;
8319;SDS011;4197;42.130;24.746;2023-12-04T02:58:42;5.87;;;4.97;;
8319;SDS011;4197;42.130;24.746;2023-12-04T03:01:11;6.73;;;5.07;;
8319;SDS011;4197;42.130;24.746;2023-12-04T03:03:39;6.90;;;4.70;;
8319;SDS011;4197;42.130;24.746;2023-12-04T03:06:08;6.93;;;5.10;;
8319;SDS011;4197;42.130;24.746;2023-12-04T03:08:37;7.00;;;5.27;;
8319;SDS011;4197;42.130;24.746;2023-12-04T03:11:05;5.73;;;5.17;;
8319;SDS011;4197;42.130;24.746;2023-12-04T03:13:34;7.23;;;4.67;;
8319;SDS011;4197;42.130;24.746;2023-12-04T03:16:04;9.03;;;5.30;;
8319;SDS011;4197;42.130;24.746;2023-12-04T03:18:32;5.03;;;4.07;;
8319;SDS011;4197;42.130;24.746;2023-12-04T03:21:01;6.63;;;5.30;;
8319;SDS011;4197;42.130;24.746;2023-12-04T03:23:30;6.87;;;5.00;;
8319;SDS011;4197;42.130;24.746;2023-12-04T03:25:59;7.77;;;5.20;;
8319;SDS011;4197;42.130;24.746;2023-12-04T03:28:27;6.13;;;5.20;;
8319;SDS011;4197;42.130;24.746;2023-12-04T03:30:55;5.17;;;4.60;;
8319;SDS011;4197;42.130;24.746;2023-12-04T03:33:25;6.23;;;4.97;;
8319;SDS011;4197;42.130;24.746;2023-12-04T03:35:54;8.00;;;6.03;;
8319;SDS011;4197;42.130;24.746;2023-12-04T03:38:22;7.80;;;5.60;;
8319;SDS011;4197;42.130;24.746;2023-12-04T03:40:51;6.43;;;4.90;;
8319;SDS011;4197;42.130;24.746;2023-12-04T03:43:19;6.17;;;5.30;;
8319;SDS011;4197;42.130;24.746;2023-12-04T03:45:51;6.47;;;5.10;;
8319;SDS011;4197;42.130;24.746;2023-12-04T03:48:19;5.97;;;4.63;;
8319;SDS011;4197;42.130;24.746;2023-12-04T03:50:49;6.47;;;4.73;;
8319;SDS011;4197;42.130;24.746;2023-12-04T03:53:18;5.37;;;4.83;;
8319;SDS011;4197;42.130;24.746;2023-12-04T03:55:46;7.33;;;4.87;;
8319;SDS011;4197;42.130;24.746;2023-12-04T03:58:14;5.77;;;4.53;;
8319;SDS011;4197;42.130;24.746;2023-12-04T04:00:43;8.87;;;4.93;;
8319;SDS011;4197;42.130;24.746;2023-12-04T04:03:11;5.20;;;3.87;;
8319;SDS011;4197;42.130;24.746;2023-12-04T04:05:40;5.87;;;4.37;;
8319;SDS011;4197;42.130;24.746;2023-12-04T04:08:10;5.60;;;4.57;;
8319;SDS011;4197;42.130;24.746;2023-12-04T04:10:38;6.23;;;4.60;;
8319;SDS011;4197;42.130;24.746;2023-12-04T04:13:07;6.90;;;4.57;;
8319;SDS011;4197;42.130;24.746;2023-12-04T04:15:35;7.23;;;5.17;;
8319;SDS011;4197;42.130;24.746;2023-12-04T04:18:04;6.30;;;4.70;;
8319;SDS011;4197;42.130;24.746;2023-12-04T04:20:32;5.67;;;4.40;;
8319;SDS011;4197;42.130;24.746;2023-12-04T04:23:00;6.53;;;4.60;;
8319;SDS011;4197;42.130;24.746;2023-12-04T04:25:30;6.53;;;5.10;;
8319;SDS011;4197;42.130;24.746;2023-12-04T04:27:58;6.13;;;4.90;;
8319;SDS011;4197;42.130;24.746;2023-12-04T04:30:30;6.33;;;4.77;;
8319;SDS011;4197;42.130;24.746;2023-12-04T04:32:58;5.67;;;4.53;;
8319;SDS011;4197;42.130;24.746;2023-12-04T04:35:27;5.70;;;4.33;;
8319;SDS011;4197;42.130;24.746;2023-12-04T04:37:56;7.60;;;5.43;;
8319;SDS011;4197;42.130;24.746;2023-12-04T04:40:25;9.47;;;5.20;;
8319;SDS011;4197;42.130;24.746;2023-12-04T04:42:55;7.27;;;5.77;;
8319;SDS011;4197;42.130;24.746;2023-12-04T04:45:23;7.83;;;5.93;;
8319;SDS011;4197;42.130;24.746;2023-12-04T04:47:51;7.47;;;5.10;;
8319;SDS011;4197;42.130;24.746;2023-12-04T04:50:20;8.30;;;6.10;;
8319;SDS011;4197;42.130;24.746;2023-12-04T04:52:48;6.57;;;4.50;;
8319;SDS011;4197;42.130;24.746;2023-12-04T04:55:17;7.80;;;4.97;;
8319;SDS011;4197;42.130;24.746;2023-12-04T04:58:07;7.33;;;4.93;;
8319;SDS011;4197;42.130;24.746;2023-12-04T05:00:36;8.07;;;5.57;;
8319;SDS011;4197;42.130;24.746;2023-12-04T05:03:04;6.80;;;6.10;;
8319;SDS011;4197;42.130;24.746;2023-12-04T05:05:33;7.07;;;5.60;;
8319;SDS011;4197;42.130;24.746;2023-12-04T05:08:01;6.47;;;4.37;;
8319;SDS011;4197;42.130;24.746;2023-12-04T05:10:30;7.77;;;5.53;;
8319;SDS011;4197;42.130;24.746;2023-12-04T05:12:58;6.67;;;5.27;;
8319;SDS011;4197;42.130;24.746;2023-12-04T05:15:28;8.17;;;6.47;;
8319;SDS011;4197;42.130;24.746;2023-12-04T05:17:57;8.07;;;6.27;;
8319;SDS011;4197;42.130;24.746;2023-12-04T05:20:25;9.83;;;6.90;;
8319;SDS011;4197;42.130;24.746;2023-12-04T05:22:54;10.73;;;7.10;;
8319;SDS011;4197;42.130;24.746;2023-12-04T05:25:22;10.07;;;6.77;;
8319;SDS011;4197;42.130;24.746;2023-12-04T05:27:57;7.70;;;6.33;;
8319;SDS011;4197;42.130;24.746;2023-12-04T05:30:25;9.77;;;6.57;;
8319;SDS011;4197;42.130;24.746;2023-12-04T05:32:55;9.17;;;6.90;;
8319;SDS011;4197;42.130;24.746;2023-12-04T05:35:23;8.50;;;7.50;;
8319;SDS011;4197;42.130;24.746;2023-12-04T05:37:52;8.20;;;6.47;;
8319;SDS011;4197;42.130;24.746;2023-12-04T05:40:20;7.33;;;6.07;;
8319;SDS011;4197;42.130;24.746;2023-12-04T05:42:48;8.67;;;6.47;;
8319;SDS011;4197;42.130;24.746;2023-12-04T05:45:17;9.73;;;6.40;;
8319;SDS011;4197;42.130;24.746;2023-12-04T05:47:45;8.13;;;6.53;;
8319;SDS011;4197;42.130;24.746;2023-12-04T05:50:15;9.27;;;5.83;;
8319;SDS011;4197;42.130;24.746;2023-12-04T05:52:44;6.90;;;5.57;;
8319;SDS011;4197;42.130;24.746;2023-12-04T05:55:12;10.33;;;6.67;;
8319;SDS011;4197;42.130;24.746;2023-12-04T05:57:41;8.27;;;6.03;;
8319;SDS011;4197;42.130;24.746;2023-12-04T06:00:10;10.17;;;5.87;;
8319;SDS011;4197;42.130;24.746;2023-12-04T06:02:40;9.00;;;6.13;;
8319;SDS011;4197;42.130;24.746;2023-12-04T06:05:09;8.40;;;6.60;;
8319;SDS011;4197;42.130;24.746;2023-12-04T06:07:39;8.97;;;6.33;;
8319;SDS011;4197;42.130;24.746;2023-12-04T06:10:08;7.57;;;5.60;;
8319;SDS011;4197;42.130;24.746;2023-12-04T06:12:39;7.67;;;6.40;;
8319;SDS011;4197;42.130;24.746;2023-12-04T06:15:09;8.60;;;6.53;;
8319;SDS011;4197;42.130;24.746;2023-12-04T06:17:37;8.27;;;6.27;;
8319;SDS011;4197;42.130;24.746;2023-12-04T06:20:06;8.10;;;5.80;;
8319;SDS011;4197;42.130;24.746;2023-12-04T06:22:39;9.37;;;6.37;;
8319;SDS011;4197;42.130;24.746;2023-12-04T06:25:09;8.00;;;6.43;;
8319;SDS011;4197;42.130;24.746;2023-12-04T06:27:38;9.10;;;6.13;;
8319;SDS011;4197;42.130;24.746;2023-12-04T06:30:07;8.17;;;6.13;;
8319;SDS011;4197;42.130;24.746;2023-12-04T06:32:36;10.17;;;6.23;;
8319;SDS011;4197;42.130;24.746;2023-12-04T06:35:05;8.80;;;6.47;;
8319;SDS011;4197;42.130;24.746;2023-12-04T06:37:35;8.93;;;6.07;;
8319;SDS011;4197;42.130;24.746;2023-12-04T06:40:08;6.73;;;5.80;;
8319;SDS011;4197;42.130;24.746;2023-12-04T06:42:38;7.47;;;5.60;;
8319;SDS011;4197;42.130;24.746;2023-12-04T06:45:07;8.00;;;6.33;;
8319;SDS011;4197;42.130;24.746;2023-12-04T06:47:36;7.97;;;5.63;;
8319;SDS011;4197;42.130;24.746;2023-12-04T06:50:08;6.43;;;5.10;;
8319;SDS011;4197;42.130;24.746;2023-12-04T06:52:37;9.63;;;6.17;;
8319;SDS011;4197;42.130;24.746;2023-12-04T06:55:07;8.43;;;7.07;;
8319;SDS011;4197;42.130;24.746;2023-12-04T06:57:36;14.30;;;9.37;;
8319;SDS011;4197;42.130;24.746;2023-12-04T07:00:05;8.13;;;5.93;;
8319;SDS011;4197;42.130;24.746;2023-12-04T07:02:47;8.33;;;6.00;;
8319;SDS011;4197;42.130;24.746;2023-12-04T07:05:16;11.43;;;6.73;;
8319;SDS011;4197;42.130;24.746;2023-12-04T07:07:45;10.33;;;6.80;;
8319;SDS011;4197;42.130;24.746;2023-12-04T07:10:15;9.50;;;7.50;;
8319;SDS011;4197;42.130;24.746;2023-12-04T07:12:44;8.70;;;7.00;;
8319;SDS011;4197;42.130;24.746;2023-12-04T07:15:13;9.57;;;6.13;;
8319;SDS011;4197;42.130;24.746;2023-12-04T07:17:41;8.17;;;6.20;;
8319;SDS011;4197;42.130;24.746;2023-12-04T07:20:10;9.50;;;6.83;;
8319;SDS011;4197;42.130;24.746;2023-12-04T07:22:39;7.77;;;5.47;;
8319;SDS011;4197;42.130;24.746;2023-12-04T07:25:08;10.63;;;7.23;;
8319;SDS011;4197;42.130;24.746;2023-12-04T07:27:38;8.57;;;5.43;;
8319;SDS011;4197;42.130;24.746;2023-12-04T07:30:07;9.27;;;5.73;;
8319;SDS011;4197;42.130;24.746;2023-12-04T07:32:36;9.87;;;5.87;;
8319;SDS011;4197;42.130;24.746;2023-12-04T07:35:05;8.80;;;5.70;;
8319;SDS011;4197;42.130;24.746;2023-12-04T07:37:34;7.87;;;6.00;;
8319;SDS011;4197;42.130;24.746;2023-12-04T07:40:03;11.57;;;6.80;;
8319;SDS011;4197;42.130;24.746;2023-12-04T07:42:35;6.63;;;5.03;;
8319;SDS011;4197;42.130;24.746;2023-12-04T07:45:05;7.73;;;6.00;;
8319;SDS011;4197;42.130;24.746;2023-12-04T07:47:35;9.23;;;6.17;;
8319;SDS011;4197;42.130;24.746;2023-12-04T07:50:04;7.10;;;5.67;;
8319;SDS011;4197;42.130;24.746;2023-12-04T07:52:33;8.70;;;5.90;;
8319;SDS011;4197;42.130;24.746;2023-12-04T07:55:01;8.00;;;5.93;;
8319;SDS011;4197;42.130;24.746;2023-12-04T07:57:30;8.53;;;6.47;;
8319;SDS011;4197;42.130;24.746;2023-12-04T07:59:59;6.53;;;5.73;;
8319;SDS011;4197;42.130;24.746;2023-12-04T08:02:30;7.57;;;5.70;;
8319;SDS011;4197;42.130;24.746;2023-12-04T08:04:58;12.10;;;5.97;;
8319;SDS011;4197;42.130;24.746;2023-12-04T08:07:26;7.47;;;5.20;;
8319;SDS011;4197;42.130;24.746;2023-12-04T08:09:55;6.43;;;4.97;;
8319;SDS011;4197;42.130;24.746;2023-12-04T08:12:24;6.93;;;4.93;;
8319;SDS011;4197;42.130;24.746;2023-12-04T08:14:53;8.50;;;5.67;;
8319;SDS011;4197;42.130;24.746;2023-12-04T08:17:22;5.60;;;4.90;;
8319;SDS011;4197;42.130;24.746;2023-12-04T08:19:52;7.87;;;5.37;;
8319;SDS011;4197;42.130;24.746;2023-12-04T08:22:21;6.67;;;5.07;;
8319;SDS011;4197;42.130;24.746;2023-12-04T08:24:49;6.00;;;4.57;;
8319;SDS011;4197;42.130;24.746;2023-12-04T08:27:17;6.73;;;5.27;;
8319;SDS011;4197;42.130;24.746;2023-12-04T08:29:46;7.50;;;6.10;;
8319;SDS011;4197;42.130;24.746;2023-12-04T08:32:14;7.43;;;5.57;;
8319;SDS011;4197;42.130;24.746;2023-12-04T08:34:43;8.20;;;5.30;;
8319;SDS011;4197;42.130;24.746;2023-12-04T08:37:13;11.40;;;6.20;;
8319;SDS011;4197;42.130;24.746;2023-12-04T08:39:42;11.20;;;6.00;;
8319;SDS011;4197;42.130;24.746;2023-12-04T08:42:11;11.97;;;6.10;;
8319;SDS011;4197;42.130;24.746;2023-12-04T08:44:48;6.27;;;5.13;;
8319;SDS011;4197;42.130;24.746;2023-12-04T08:47:17;6.60;;;4.93;;
8319;SDS011;4197;42.130;24.746;2023-12-04T08:49:45;7.53;;;5.60;;
8319;SDS011;4197;42.130;24.746;2023-12-04T08:52:16;7.40;;;5.70;;
8319;SDS011;4197;42.130;24.746;2023-12-04T08:54:45;8.93;;;5.50;;
8319;SDS011;4197;42.130;24.746;2023-12-04T08:57:14;10.90;;;6.10;;
8319;SDS011;4197;42.130;24.746;2023-12-04T08:59:42;10.17;;;5.83;;
8319;SDS011;4197;42.130;24.746;2023-12-04T09:02:10;7.30;;;5.60;;
8319;SDS011;4197;42.130;24.746;2023-12-04T09:04:40;9.77;;;6.43;;
8319;SDS011;4197;42.130;24.746;2023-12-04T09:07:10;7.97;;;6.33;;
8319;SDS011;4197;42.130;24.746;2023-12-04T09:10:00;8.67;;;6.60;;
8319;SDS011;4197;42.130;24.746;2023-12-04T09:12:39;10.83;;;7.90;;
8319;SDS011;4197;42.130;24.746;2023-12-04T09:15:08;11.43;;;7.40;;
8319;SDS011;4197;42.130;24.746;2023-12-04T09:17:47;9.10;;;7.20;;
8319;SDS011;4197;42.130;24.746;2023-12-04T09:20:24;13.17;;;8.67;;
8319;SDS011;4197;42.130;24.746;2023-12-04T09:22:54;10.47;;;7.23;;
8319;SDS011;4197;42.130;24.746;2023-12-04T09:25:35;14.00;;;9.63;;
8319;SDS011;4197;42.130;24.746;2023-12-04T09:28:12;12.73;;;7.13;;
8319;SDS011;4197;42.130;24.746;2023-12-04T09:30:41;13.60;;;9.37;;
8319;SDS011;4197;42.130;24.746;2023-12-04T09:33:09;10.50;;;7.57;;
8319;SDS011;4197;42.130;24.746;2023-12-04T09:35:38;11.27;;;9.33;;
8319;SDS011;4197;42.130;24.746;2023-12-04T09:38:06;12.60;;;8.97;;
8319;SDS011;4197;42.130;24.746;2023-12-04T09:40:36;14.07;;;8.33;;
8319;SDS011;4197;42.130;24.746;2023-12-04T09:43:05;11.47;;;7.97;;
8319;SDS011;4197;42.130;24.746;2023-12-04T09:45:34;9.47;;;7.57;;
8319;SDS011;4197;42.130;24.746;2023-12-04T09:48:04;14.03;;;8.03;;
8319;SDS011;4197;42.130;24.746;2023-12-04T09:50:36;8.33;;;6.43;;
8319;SDS011;4197;42.130;24.746;2023-12-04T09:53:05;10.20;;;6.63;;
8319;SDS011;4197;42.130;24.746;2023-12-04T09:55:38;10.73;;;8.50;;
8319;SDS011;4197;42.130;24.746;2023-12-04T09:58:06;12.83;;;7.53;;
8319;SDS011;4197;42.130;24.746;2023-12-04T10:00:37;9.30;;;7.10;;
8319;SDS011;4197;42.130;24.746;2023-12-04T10:03:05;10.30;;;7.50;;
8319;SDS011;4197;42.130;24.746;2023-12-04T10:05:35;8.83;;;6.87;;
8319;SDS011;4197;42.130;24.746;2023-12-04T10:08:04;10.27;;;7.43;;
8319;SDS011;4197;42.130;24.746;2023-12-04T10:10:32;8.90;;;6.97;;
8319;SDS011;4197;42.130;24.746;2023-12-04T10:13:02;8.63;;;7.13;;
8319;SDS011;4197;42.130;24.746;2023-12-04T10:15:31;12.30;;;8.10;;
8319;SDS011;4197;42.130;24.746;2023-12-04T10:17:59;9.53;;;6.63;;
8319;SDS011;4197;42.130;24.746;2023-12-04T10:20:27;8.17;;;6.43;;
8319;SDS011;4197;42.130;24.746;2023-12-04T10:22:56;16.47;;;9.07;;
8319;SDS011;4197;42.130;24.746;2023-12-04T10:25:26;12.23;;;7.93;;
8319;SDS011;4197;42.130;24.746;2023-12-04T10:28:28;9.70;;;7.43;;
8319;SDS011;4197;42.130;24.746;2023-12-04T10:30:57;11.93;;;7.70;;
8319;SDS011;4197;42.130;24.746;2023-12-04T10:33:25;14.77;;;8.70;;
8319;SDS011;4197;42.130;24.746;2023-12-04T10:35:54;10.83;;;7.40;;
8319;SDS011;4197;42.130;24.746;2023-12-04T10:38:23;11.63;;;7.87;;
8319;SDS011;4197;42.130;24.746;2023-12-04T10:40:53;11.10;;;7.60;;
8319;SDS011;4197;42.130;24.746;2023-12-04T10:43:21;11.87;;;7.50;;
8319;SDS011;4197;42.130;24.746;2023-12-04T10:45:52;9.00;;;6.90;;
8319;SDS011;4197;42.130;24.746;2023-12-04T10:48:21;10.50;;;7.43;;
8319;SDS011;4197;42.130;24.746;2023-12-04T10:50:50;9.70;;;7.53;;
8319;SDS011;4197;42.130;24.746;2023-12-04T10:53:19;10.27;;;6.60;;
8319;SDS011;4197;42.130;24.746;2023-12-04T10:55:49;12.10;;;7.60;;
8319;SDS011;4197;42.130;24.746;2023-12-04T10:58:24;9.47;;;7.57;;
8319;SDS011;4197;42.130;24.746;2023-12-04T11:00:55;9.47;;;6.90;;
8319;SDS011;4197;42.130;24.746;2023-12-04T11:03:31;10.77;;;6.83;;
8319;SDS011;4197;42.130;24.746;2023-12-04T11:06:04;11.10;;;7.00;;
8319;SDS011;4197;42.130;24.746;2023-12-04T11:08:36;7.83;;;6.00;;
8319;SDS011;4197;42.130;24.746;2023-12-04T11:11:08;13.30;;;6.93;;
8319;SDS011;4197;42.130;24.746;2023-12-04T11:13:41;7.83;;;6.23;;
8319;SDS011;4197;42.130;24.746;2023-12-04T11:16:13;12.13;;;6.13;;
8319;SDS011;4197;42.130;24.746;2023-12-04T11:18:48;9.37;;;7.10;;
8319;SDS011;4197;42.130;24.746;2023-12-04T11:21:23;10.30;;;7.67;;
8319;SDS011;4197;42.130;24.746;2023-12-04T11:23:52;8.10;;;6.00;;
8319;SDS011;4197;42.130;24.746;2023-12-04T11:26:21;9.30;;;6.20;;
8319;SDS011;4197;42.130;24.746;2023-12-04T11:28:50;11.77;;;7.47;;
8319;SDS011;4197;42.130;24.746;2023-12-04T11:31:23;10.67;;;6.83;;
8319;SDS011;4197;42.130;24.746;2023-12-04T11:33:52;9.63;;;6.03;;
8319;SDS011;4197;42.130;24.746;2023-12-04T11:36:20;9.90;;;6.90;;
8319;SDS011;4197;42.130;24.746;2023-12-04T11:38:50;10.20;;;7.87;;
8319;SDS011;4197;42.130;24.746;2023-12-04T11:41:18;10.27;;;7.20;;
8319;SDS011;4197;42.130;24.746;2023-12-04T11:43:54;10.93;;;6.53;;
8319;SDS011;4197;42.130;24.746;2023-12-04T11:46:26;8.87;;;7.30;;
8319;SDS011;4197;42.130;24.746;2023-12-04T11:48:57;8.40;;;6.63;;
8319;SDS011;4197;42.130;24.746;2023-12-04T11:51:56;11.40;;;7.27;;
8319;SDS011;4197;42.130;24.746;2023-12-04T11:54:25;12.00;;;7.17;;
8319;SDS011;4197;42.130;24.746;2023-12-04T11:56:57;13.73;;;7.07;;
8319;SDS011;4197;42.130;24.746;2023-12-04T11:59:27;9.07;;;7.53;;
8319;SDS011;4197;42.130;24.746;2023-12-04T12:01:57;11.20;;;7.20;;
8319;SDS011;4197;42.130;24.746;2023-12-04T12:04:26;8.03;;;6.70;;
8319;SDS011;4197;42.130;24.746;2023-12-04T12:06:58;12.03;;;6.60;;
8319;SDS011;4197;42.130;24.746;2023-12-04T12:09:29;9.80;;;6.97;;
8319;SDS011;4197;42.130;24.746;2023-12-04T12:11:59;9.50;;;7.13;;
8319;SDS011;4197;42.130;24.746;2023-12-04T12:14:28;7.73;;;6.53;;
8319;SDS011;4197;42.130;24.746;2023-12-04T12:16:59;8.23;;;6.87;;
8319;SDS011;4197;42.130;24.746;2023-12-04T12:19:28;11.00;;;6.90;;
8319;SDS011;4197;42.130;24.746;2023-12-04T12:21:56;8.93;;;6.53;;
8319;SDS011;4197;42.130;24.746;2023-12-04T12:24:26;8.53;;;6.73;;
8319;SDS011;4197;42.130;24.746;2023-12-04T12:26:56;8.90;;;6.77;;
8319;SDS011;4197;42.130;24.746;2023-12-04T12:29:24;11.33;;;9.03;;
8319;SDS011;4197;42.130;24.746;2023-12-04T12:31:55;8.77;;;6.30;;
8319;SDS011;4197;42.130;24.746;2023-12-04T12:34:25;9.70;;;8.17;;
8319;SDS011;4197;42.130;24.746;2023-12-04T12:36:54;8.63;;;7.00;;
8319;SDS011;4197;42.130;24.746;2023-12-04T12:39:23;10.27;;;7.00;;
8319;SDS011;4197;42.130;24.746;2023-12-04T12:41:51;9.80;;;7.00;;
8319;SDS011;4197;42.130;24.746;2023-12-04T12:44:20;12.83;;;7.47;;
8319;SDS011;4197;42.130;24.746;2023-12-04T12:46:48;10.23;;;7.53;;
8319;SDS011;4197;42.130;24.746;2023-12-04T12:49:17;8.80;;;6.30;;
8319;SDS011;4197;42.130;24.746;2023-12-04T12:52:04;8.17;;;6.30;;
8319;SDS011;4197;42.130;24.746;2023-12-04T12:54:36;12.23;;;8.53;;
8319;SDS011;4197;42.130;24.746;2023-12-04T12:57:05;13.37;;;7.60;;
8319;SDS011;4197;42.130;24.746;2023-12-04T12:59:34;12.00;;;7.83;;
8319;SDS011;4197;42.130;24.746;2023-12-04T13:02:02;11.30;;;7.53;;
8319;SDS011;4197;42.130;24.746;2023-12-04T13:04:33;14.63;;;8.73;;
8319;SDS011;4197;42.130;24.746;2023-12-04T13:07:04;11.63;;;8.70;;
8319;SDS011;4197;42.130;24.746;2023-12-04T13:09:33;11.13;;;8.97;;
8319;SDS011;4197;42.130;24.746;2023-12-04T13:12:03;17.27;;;11.00;;
8319;SDS011;4197;42.130;24.746;2023-12-04T13:14:33;13.30;;;9.90;;
8319;SDS011;4197;42.130;24.746;2023-12-04T13:17:03;14.70;;;10.40;;
8319;SDS011;4197;42.130;24.746;2023-12-04T13:19:33;13.80;;;10.00;;
8319;SDS011;4197;42.130;24.746;2023-12-04T13:22:04;14.33;;;8.90;;
8319;SDS011;4197;42.130;24.746;2023-12-04T13:24:33;12.73;;;8.67;;
8319;SDS011;4197;42.130;24.746;2023-12-04T13:27:02;15.87;;;9.83;;
8319;SDS011;4197;42.130;24.746;2023-12-04T13:29:30;12.33;;;9.53;;
8319;SDS011;4197;42.130;24.746;2023-12-04T13:31:59;13.93;;;10.03;;
8319;SDS011;4197;42.130;24.746;2023-12-04T13:34:27;12.77;;;10.03;;
8319;SDS011;4197;42.130;24.746;2023-12-04T13:36:56;18.20;;;10.90;;
8319;SDS011;4197;42.130;24.746;2023-12-04T13:39:25;12.30;;;9.57;;
8319;SDS011;4197;42.130;24.746;2023-12-04T13:42:14;13.70;;;9.40;;
8319;SDS011;4197;42.130;24.746;2023-12-04T13:45:00;15.90;;;9.57;;
8319;SDS011;4197;42.130;24.746;2023-12-04T13:47:31;14.60;;;10.17;;
8319;SDS011;4197;42.130;24.746;2023-12-04T13:50:01;17.27;;;11.97;;
8319;SDS011;4197;42.130;24.746;2023-12-04T13:52:30;22.83;;;13.20;;
8319;SDS011;4197;42.130;24.746;2023-12-04T13:55:02;12.90;;;10.27;;
8319;SDS011;4197;42.130;24.746;2023-12-04T13:57:42;17.33;;;12.67;;
8319;SDS011;4197;42.130;24.746;2023-12-04T14:00:23;18.30;;;12.30;;
8319;SDS011;4197;42.130;24.746;2023-12-04T14:02:52;21.60;;;14.50;;
8319;SDS011;4197;42.130;24.746;2023-12-04T14:05:27;18.97;;;12.93;;
8319;SDS011;4197;42.130;24.746;2023-12-04T14:07:56;18.57;;;12.13;;
8319;SDS011;4197;42.130;24.746;2023-12-04T14:10:27;18.57;;;12.67;;
8319;SDS011;4197;42.130;24.746;2023-12-04T14:12:55;18.90;;;12.53;;
8319;SDS011;4197;42.130;24.746;2023-12-04T14:15:26;37.37;;;27.37;;
8319;SDS011;4197;42.130;24.746;2023-12-04T14:17:55;27.67;;;17.13;;
8319;SDS011;4197;42.130;24.746;2023-12-04T14:20:23;28.70;;;14.17;;
8319;SDS011;4197;42.130;24.746;2023-12-04T14:22:52;19.00;;;12.97;;
8319;SDS011;4197;42.130;24.746;2023-12-04T14:25:22;19.87;;;13.43;;
8319;SDS011;4197;42.130;24.746;2023-12-04T14:27:51;27.33;;;21.37;;
8319;SDS011;4197;42.130;24.746;2023-12-04T14:30:20;18.70;;;14.57;;
8319;SDS011;4197;42.130;24.746;2023-12-04T14:32:48;24.77;;;13.63;;
8319;SDS011;4197;42.130;24.746;2023-12-04T14:35:17;19.93;;;12.17;;
8319;SDS011;4197;42.130;24.746;2023-12-04T14:37:46;20.37;;;13.33;;
8319;SDS011;4197;42.130;24.746;2023-12-04T14:40:14;23.87;;;12.97;;
8319;SDS011;4197;42.130;24.746;2023-12-04T14:42:43;23.57;;;14.47;;
8319;SDS011;4197;42.130;24.746;2023-12-04T14:45:13;22.70;;;14.77;;
8319;SDS011;4197;42.130;24.746;2023-12-04T14:47:43;26.10;;;14.40;;
8319;SDS011;4197;42.130;24.746;2023-12-04T14:50:15;23.63;;;14.97;;
8319;SDS011;4197;42.130;24.746;2023-12-04T14:52:43;24.33;;;16.10;;
8319;SDS011;4197;42.130;24.746;2023-12-04T14:55:16;23.07;;;15.20;;
8319;SDS011;4197;42.130;24.746;2023-12-04T14:58:01;21.13;;;14.80;;
8319;SDS011;4197;42.130;24.746;2023-12-04T15:01:23;24.53;;;15.13;;
8319;SDS011;4197;42.130;24.746;2023-12-04T15:04:06;21.77;;;14.10;;
8319;SDS011;4197;42.130;24.746;2023-12-04T15:06:51;24.33;;;15.70;;
8319;SDS011;4197;42.130;24.746;2023-12-04T15:09:55;24.10;;;15.40;;
8319;SDS011;4197;42.130;24.746;2023-12-04T15:12:41;23.17;;;15.07;;
8319;SDS011;4197;42.130;24.746;2023-12-04T15:15:24;24.23;;;14.50;;